createdAt,value
2019-03-23T00:01:48.570Z,53.79
2019-03-23T00:06:57.151Z,54.20
2019-03-23T00:12:05.535Z,52.90
2019-03-23T00:17:13.791Z,53.60
2019-03-23T00:22:22.288Z,54.51
2019-03-23T00:27:30.447Z,54.27
2019-03-23T00:32:39.118Z,53.44
2019-03-23T00:37:47.426Z,53.98
2019-03-23T00:42:55.812Z,54.31
2019-03-23T00:48:03.960Z,54.27
2019-03-23T00:53:12.735Z,54.00
2019-03-23T00:58:20.976Z,54.06
2019-03-23T01:03:29.401Z,51.39
2019-03-23T01:08:37.792Z,51.78
2019-03-23T01:13:46.270Z,51.49
2019-03-23T01:18:54.666Z,50.97
2019-03-23T01:24:03.053Z,51.22
2019-03-23T01:29:11.242Z,51.48
2019-03-23T01:34:19.778Z,51.04
2019-03-23T01:39:28.038Z,51.15
2019-03-23T01:44:36.557Z,48.98
2019-03-23T01:49:44.726Z,45.87
2019-03-23T01:54:53.202Z,45.82
2019-03-23T02:00:01.603Z,45.11
2019-03-23T02:05:10.198Z,41.45
2019-03-23T02:10:18.364Z,38.24
2019-03-23T02:15:27.236Z,35.81
2019-03-23T02:20:35.774Z,34.62
2019-03-23T02:25:44.464Z,32.67
2019-03-23T02:30:52.810Z,32.32
2019-03-23T02:36:01.110Z,32.87
2019-03-23T02:41:09.287Z,32.88
2019-03-23T02:46:17.703Z,33.91
2019-03-23T02:51:25.926Z,33.83
2019-03-23T02:56:34.350Z,34.84
2019-03-23T03:01:42.825Z,36.06
2019-03-23T03:06:51.738Z,36.58
2019-03-23T03:11:59.910Z,36.67
2019-03-23T03:17:08.319Z,37.56
2019-03-23T03:22:16.623Z,37.19
2019-03-23T03:27:25.093Z,39.90
2019-03-23T03:32:33.342Z,37.91
2019-03-23T03:37:55.339Z,39.06
2019-03-23T03:42:49.663Z,38.38
2019-03-23T03:47:58.056Z,39.18
2019-03-23T03:53:06.401Z,41.99
2019-03-23T03:58:14.965Z,44.03
2019-03-23T04:03:23.198Z,43.33
2019-03-23T04:08:31.554Z,44.67
2019-03-23T04:13:39.830Z,44.27
2019-03-23T04:18:48.225Z,43.71
2019-03-23T04:23:56.558Z,46.06
2019-03-23T04:29:05.331Z,46.19
2019-03-23T04:34:13.679Z,46.48
2019-03-23T04:39:22.117Z,47.00
2019-03-23T04:44:30.834Z,46.19
2019-03-23T04:49:39.669Z,45.39
2019-03-23T04:54:47.917Z,46.24
2019-03-23T04:59:56.417Z,44.90
2019-03-23T05:05:05.381Z,46.60
2019-03-23T05:10:12.512Z,47.12
2019-03-23T05:15:21.218Z,47.45
2019-03-23T05:20:29.718Z,46.88
2019-03-23T05:25:38.477Z,45.24
2019-03-23T05:30:46.952Z,45.87
2019-03-23T05:35:55.519Z,44.53
2019-03-23T05:41:04.148Z,42.35
2019-03-23T05:46:12.231Z,45.32
2019-03-23T05:51:20.699Z,42.61
2019-03-23T05:56:28.855Z,42.42
2019-03-23T06:01:38.394Z,43.52
2019-03-23T06:06:46.646Z,43.38
2019-03-23T06:11:55.259Z,43.31
2019-03-23T06:17:03.656Z,42.80
2019-03-23T06:22:12.272Z,43.74
2019-03-23T06:27:20.455Z,43.67
2019-03-23T06:32:29.047Z,41.85
2019-03-23T06:37:37.259Z,41.24
2019-03-23T06:42:45.726Z,40.44
2019-03-23T06:47:54.166Z,40.69
2019-03-23T06:53:02.678Z,39.00
2019-03-23T06:58:11.387Z,38.45
2019-03-23T07:03:20.318Z,38.63
2019-03-23T07:08:32.231Z,39.52
2019-03-23T07:13:36.348Z,39.82
2019-03-23T07:18:44.662Z,39.40
2019-03-23T07:23:53.006Z,39.24
2019-03-23T07:29:01.344Z,38.90
2019-03-23T07:34:09.837Z,39.59
2019-03-23T07:39:26.712Z,39.26
2019-03-23T07:44:26.041Z,38.12
2019-03-23T07:49:34.503Z,39.09
2019-03-23T07:54:43.107Z,38.32
2019-03-23T07:59:51.464Z,39.14
2019-03-23T08:04:59.955Z,36.23
2019-03-23T08:10:08.424Z,35.51
2019-03-23T08:15:16.883Z,36.33
2019-03-23T08:20:25.226Z,36.76
2019-03-23T08:25:34.479Z,37.79
2019-03-23T08:30:34.453Z,38.53
2019-03-23T08:35:42.934Z,37.96
2019-03-23T08:40:51.174Z,36.87
2019-03-23T08:45:59.937Z,36.73
2019-03-23T08:51:08.273Z,37.72
2019-03-23T08:56:16.752Z,36.32
2019-03-23T09:01:25.325Z,35.77
2019-03-23T09:06:34.064Z,36.82
2019-03-23T09:11:42.310Z,35.91
2019-03-23T09:16:50.993Z,35.99
2019-03-23T09:21:59.349Z,36.07
2019-03-23T09:27:07.794Z,36.58
2019-03-23T09:32:15.982Z,36.10
2019-03-23T09:37:24.929Z,36.14
2019-03-23T09:42:33.555Z,35.93
2019-03-23T09:47:42.033Z,36.11
2019-03-23T09:52:50.301Z,36.00
2019-03-23T09:57:59.174Z,36.53
2019-03-23T10:03:07.509Z,37.50
2019-03-23T10:08:16.073Z,37.63
2019-03-23T10:13:24.373Z,37.76
2019-03-23T10:18:33.233Z,38.32
2019-03-23T10:23:41.467Z,37.96
2019-03-23T10:28:50.260Z,37.95
2019-03-23T10:33:58.592Z,38.08
2019-03-23T10:39:07.020Z,38.17
2019-03-23T10:44:15.196Z,38.16
2019-03-23T10:49:23.871Z,39.27
2019-03-23T10:54:32.528Z,38.54
2019-03-23T10:59:41.363Z,38.55
2019-03-23T11:04:49.666Z,38.23
2019-03-23T11:09:58.247Z,38.35
2019-03-23T11:15:06.517Z,38.23
2019-03-23T11:20:14.924Z,39.16
2019-03-23T11:25:23.255Z,39.92
2019-03-23T11:30:32.023Z,38.85
2019-03-23T11:35:40.461Z,38.23
2019-03-23T11:40:54.993Z,38.62
2019-03-23T11:45:56.695Z,37.59
2019-03-23T11:51:05.330Z,44.28
2019-03-23T11:56:13.849Z,38.57
2019-03-23T12:01:22.346Z,39.27
2019-03-23T12:06:30.850Z,36.67
2019-03-23T12:11:39.477Z,39.55
2019-03-23T12:16:48.071Z,39.62
2019-03-23T12:21:56.560Z,38.72
2019-03-23T12:27:05.051Z,37.85
2019-03-23T12:32:13.467Z,36.98
2019-03-23T12:37:21.797Z,37.87
2019-03-23T12:42:30.458Z,37.31
2019-03-23T12:47:38.821Z,35.19
2019-03-23T12:52:47.386Z,32.42
2019-03-23T12:57:55.735Z,29.91
2019-03-23T13:03:04.082Z,30.16
2019-03-23T13:08:13.126Z,28.53
2019-03-23T13:13:21.648Z,23.62
2019-03-23T13:18:32.589Z,22.51
2019-03-23T13:23:30.810Z,22.79
2019-03-23T13:28:39.385Z,22.44
2019-03-23T13:33:47.920Z,16.61
2019-03-23T13:38:56.167Z,14.84
2019-03-23T13:44:04.729Z,10.40
2019-03-23T13:49:13.125Z,9.73
2019-03-23T13:54:21.949Z,8.22
2019-03-23T13:59:30.259Z,6.05
2019-03-23T14:04:38.762Z,5.53
2019-03-23T14:09:47.260Z,3.38
2019-03-23T14:14:55.855Z,3.17
2019-03-23T14:20:04.327Z,3.06
2019-03-23T14:25:12.735Z,2.97
2019-03-23T14:30:21.175Z,3.09
2019-03-23T14:35:29.646Z,2.77
2019-03-23T14:40:37.925Z,2.57
2019-03-23T14:45:46.267Z,2.14
2019-03-23T14:50:54.606Z,2.44
2019-03-23T14:56:03.039Z,2.32
2019-03-23T15:01:11.174Z,2.41
2019-03-23T15:06:19.507Z,2.07
2019-03-23T15:11:27.756Z,3.16
2019-03-23T15:16:36.822Z,2.81
2019-03-23T15:21:45.133Z,3.09
2019-03-23T15:26:53.322Z,3.07
2019-03-23T15:32:01.613Z,11.94
2019-03-23T15:37:10.152Z,3.62
2019-03-23T15:42:24.652Z,3.49
2019-03-23T15:47:26.262Z,4.42
2019-03-23T15:52:34.510Z,3.87
2019-03-23T15:57:43.026Z,3.43
2019-03-23T16:02:51.336Z,3.71
2019-03-23T16:07:59.622Z,3.71
2019-03-23T16:13:07.970Z,3.71
2019-03-23T16:18:16.226Z,3.92
2019-03-23T16:23:24.985Z,4.00
2019-03-23T16:28:33.260Z,4.60
2019-03-23T16:33:41.538Z,4.52
2019-03-23T16:38:50.149Z,3.45
2019-03-23T16:43:56.808Z,4.12
2019-03-23T16:49:05.229Z,3.49
2019-03-23T16:54:13.478Z,3.89
2019-03-23T16:59:22.553Z,4.11
2019-03-23T17:04:30.813Z,3.87
2019-03-23T17:09:39.338Z,4.49
2019-03-23T17:14:47.658Z,4.66
2019-03-23T17:19:48.209Z,4.51
2019-03-23T17:24:48.814Z,4.36
2019-03-23T17:29:57.166Z,4.61
2019-03-23T17:35:05.400Z,4.19
2019-03-23T17:40:14.025Z,5.09
2019-03-23T17:45:22.322Z,8.10
2019-03-23T17:50:30.723Z,10.08
2019-03-23T17:55:38.930Z,4.96
2019-03-23T18:00:47.391Z,4.54
2019-03-23T18:05:55.607Z,4.73
2019-03-23T18:11:03.905Z,4.60
2019-03-23T18:16:12.183Z,4.62
2019-03-23T18:21:20.689Z,4.96
2019-03-23T18:26:28.935Z,4.75
2019-03-23T18:31:41.553Z,5.68
2019-03-23T18:36:40.904Z,5.62
2019-03-23T18:41:50.789Z,5.14
2019-03-23T18:46:59.605Z,5.73
2019-03-23T18:52:15.072Z,5.10
2019-03-23T18:57:13.833Z,5.32
2019-03-23T19:02:15.506Z,5.11
2019-03-23T19:07:25.733Z,4.60
2019-03-23T19:12:25.049Z,4.99
2019-03-23T19:17:33.680Z,5.50
2019-03-23T19:22:42.349Z,5.13
2019-03-23T19:27:50.726Z,5.14
2019-03-23T19:33:00.093Z,5.28
2019-03-23T19:38:08.238Z,5.48
2019-03-23T19:43:16.619Z,5.68
2019-03-23T19:48:24.836Z,6.51
2019-03-23T19:53:33.227Z,6.57
2019-03-23T19:58:41.449Z,5.99
2019-03-23T20:03:52.295Z,6.26
2019-03-23T20:08:50.559Z,5.70
2019-03-23T20:13:59.202Z,5.70
2019-03-23T20:19:06.592Z,7.26
2019-03-23T20:24:17.241Z,6.09
2019-03-23T20:29:15.489Z,5.85
2019-03-23T20:34:23.851Z,5.90
2019-03-23T20:39:32.499Z,5.79
2019-03-23T20:44:41.042Z,5.73
2019-03-23T20:49:49.602Z,6.54
2019-03-23T20:54:58.743Z,6.35
2019-03-23T21:00:07.862Z,6.22
2019-03-23T21:05:16.087Z,5.99
2019-03-23T21:10:24.553Z,6.56
2019-03-23T21:15:33.103Z,6.51
2019-03-23T21:20:41.218Z,7.12
2019-03-23T21:25:49.644Z,6.78
2019-03-23T21:30:57.872Z,6.38
2019-03-23T21:36:06.097Z,6.09
2019-03-23T21:41:14.266Z,6.75
2019-03-23T21:46:22.526Z,9.74
2019-03-23T21:51:31.771Z,8.52
2019-03-23T21:56:40.848Z,6.91
2019-03-23T22:01:49.193Z,6.00
2019-03-23T22:06:57.737Z,6.70
2019-03-23T22:11:59.163Z,6.63
2019-03-23T22:17:07.445Z,5.67
2019-03-23T22:22:15.550Z,6.55
2019-03-23T22:27:24.158Z,5.86
2019-03-23T22:32:32.409Z,5.63
2019-03-23T22:37:40.777Z,5.88
2019-03-23T22:42:49.653Z,6.01
2019-03-23T22:47:58.191Z,5.96
2019-03-23T22:53:06.377Z,6.49
2019-03-23T22:58:14.766Z,5.93
2019-03-23T23:03:22.973Z,6.98
2019-03-23T23:08:31.305Z,6.61
2019-03-23T23:13:39.450Z,6.67
2019-03-23T23:18:46.448Z,7.05
2019-03-23T23:23:54.590Z,6.23
2019-03-23T23:29:03.055Z,6.38
2019-03-23T23:34:11.359Z,5.79
2019-03-23T23:39:19.961Z,5.79
2019-03-23T23:44:28.135Z,5.81
2019-03-23T23:49:36.509Z,5.95
2019-03-23T23:54:43.176Z,5.94
2019-03-23T23:59:52.215Z,8.06
